createdAt,value
2017-10-17T00:01:52.895Z,17.00
2017-10-17T00:04:20.465Z,17.00
2017-10-17T00:06:48.020Z,16.90
2017-10-17T00:09:15.788Z,16.90
2017-10-17T00:11:43.343Z,17.00
2017-10-17T00:14:11.673Z,16.90
2017-10-17T00:16:39.295Z,16.90
2017-10-17T00:19:06.869Z,16.90
2017-10-17T00:21:34.428Z,16.80
2017-10-17T00:24:02.035Z,16.90
2017-10-17T00:26:29.744Z,16.80
2017-10-17T00:28:57.295Z,16.80
2017-10-17T00:31:24.987Z,16.80
2017-10-17T00:33:53.316Z,16.80
2017-10-17T00:36:21.619Z,16.80
2017-10-17T00:38:51.384Z,16.80
2017-10-17T00:41:20.452Z,16.80
2017-10-17T00:43:48.008Z,16.80
2017-10-17T00:46:17.464Z,16.80
2017-10-17T00:48:45.031Z,16.80
2017-10-17T00:54:12.262Z,16.80
2017-10-17T00:56:39.864Z,16.80
2017-10-17T00:59:07.420Z,16.80
2017-10-17T01:01:34.980Z,16.70
2017-10-17T01:04:03.419Z,16.70
2017-10-17T01:06:30.975Z,16.70
2017-10-17T01:08:58.539Z,16.60
2017-10-17T01:11:26.907Z,16.60
2017-10-17T01:13:54.475Z,16.60
2017-10-17T01:16:22.031Z,16.60
2017-10-17T01:18:49.646Z,16.50
2017-10-17T01:21:17.208Z,16.50
2017-10-17T01:23:47.455Z,16.50
2017-10-17T01:26:16.933Z,16.50
2017-10-17T01:28:44.487Z,16.40
2017-10-17T01:31:12.036Z,16.40
2017-10-17T01:33:39.782Z,16.30
2017-10-17T01:36:08.118Z,16.30
2017-10-17T01:41:39.345Z,16.20
2017-10-17T01:47:18.883Z,16.10
2017-10-17T01:50:03.200Z,16.10
2017-10-17T01:52:31.670Z,16.10
2017-10-17T01:55:00.795Z,16.00
2017-10-17T01:57:31.394Z,16.00
2017-10-17T02:00:03.351Z,15.90
2017-10-17T02:02:30.956Z,15.90
2017-10-17T02:05:01.367Z,15.90
2017-10-17T02:07:28.933Z,15.80
2017-10-17T02:12:57.402Z,15.80
2017-10-17T02:15:25.951Z,15.70
2017-10-17T02:18:05.469Z,15.70
2017-10-17T02:20:33.231Z,15.60
2017-10-17T02:23:00.784Z,15.60
2017-10-17T02:25:29.711Z,15.60
2017-10-17T02:28:01.880Z,15.60
2017-10-17T02:30:32.011Z,15.50
2017-10-17T02:32:59.569Z,15.50
2017-10-17T02:35:29.880Z,15.40
2017-10-17T02:37:57.444Z,15.40
2017-10-17T02:40:25.006Z,15.40
2017-10-17T02:42:55.455Z,15.40
2017-10-17T02:45:23.012Z,15.40
2017-10-17T02:47:53.161Z,15.30
2017-10-17T02:50:21.571Z,15.30
2017-10-17T02:52:49.133Z,15.30
2017-10-17T02:55:18.264Z,15.20
2017-10-17T02:57:46.039Z,15.30
2017-10-17T03:00:16.508Z,15.20
2017-10-17T03:02:46.564Z,15.20
2017-10-17T03:05:17.670Z,15.10
2017-10-17T03:07:45.246Z,15.10
2017-10-17T03:10:12.968Z,15.10
2017-10-17T03:12:40.523Z,15.10
2017-10-17T03:15:09.772Z,15.00
2017-10-17T03:17:38.157Z,15.00
2017-10-17T03:20:05.712Z,14.90
2017-10-17T03:22:33.267Z,14.90
2017-10-17T03:25:02.332Z,14.90
2017-10-17T03:27:30.664Z,14.80
2017-10-17T03:29:58.215Z,14.80
2017-10-17T03:32:26.036Z,14.80
2017-10-17T03:34:54.367Z,14.70
2017-10-17T03:37:24.459Z,14.70
2017-10-17T03:40:04.012Z,14.70
2017-10-17T03:42:32.354Z,14.70
2017-10-17T03:45:00.728Z,14.70
2017-10-17T03:47:48.760Z,14.70
2017-10-17T03:50:17.043Z,14.70
2017-10-17T03:52:45.755Z,14.70
2017-10-17T03:55:13.354Z,14.70
2017-10-17T03:57:53.199Z,14.60
2017-10-17T04:00:22.864Z,14.60
2017-10-17T04:02:52.227Z,14.60
2017-10-17T04:05:38.456Z,14.60
2017-10-17T04:11:16.298Z,14.60
2017-10-17T04:16:48.128Z,14.50
2017-10-17T04:19:34.201Z,14.50
2017-10-17T04:22:07.318Z,14.50
2017-10-17T04:24:42.435Z,14.40
2017-10-17T04:27:20.035Z,14.40
2017-10-17T04:29:50.295Z,14.40
2017-10-17T04:32:17.856Z,14.40
2017-10-17T04:34:49.039Z,14.40
2017-10-17T04:37:28.586Z,14.40
2017-10-17T04:39:56.194Z,14.30
2017-10-17T04:42:45.328Z,14.40
2017-10-17T04:45:24.863Z,14.40
2017-10-17T04:48:04.346Z,14.30
2017-10-17T04:50:37.424Z,14.30
2017-10-17T04:56:18.248Z,14.40
2017-10-17T04:58:57.591Z,14.40
2017-10-17T05:01:25.200Z,14.40
2017-10-17T05:03:58.164Z,14.40
2017-10-17T05:06:25.908Z,14.40
2017-10-17T05:09:06.672Z,14.40
2017-10-17T05:11:35.052Z,14.50
2017-10-17T05:16:59.008Z,14.50
2017-10-17T05:22:32.942Z,14.50
2017-10-17T05:25:16.912Z,14.40
2017-10-17T05:30:49.391Z,14.50
2017-10-17T05:33:36.714Z,14.50
2017-10-17T05:36:07.231Z,14.50
2017-10-17T05:38:34.792Z,14.50
2017-10-17T05:41:02.408Z,14.50
2017-10-17T05:43:46.700Z,14.50
2017-10-17T05:46:14.308Z,14.50
2017-10-17T05:48:41.868Z,14.50
2017-10-17T05:54:04.870Z,14.50
2017-10-17T05:56:32.479Z,14.50
2017-10-17T05:59:00.051Z,14.50
2017-10-17T06:01:28.388Z,14.50
2017-10-17T06:03:56.179Z,14.50
2017-10-17T06:06:24.504Z,14.50
2017-10-17T06:08:52.064Z,14.50
2017-10-17T06:11:20.628Z,14.50
2017-10-17T06:13:48.192Z,14.50
2017-10-17T06:16:15.752Z,14.50
2017-10-17T06:18:43.490Z,14.50
2017-10-17T06:21:11.059Z,14.50
2017-10-17T06:23:38.624Z,14.50
2017-10-17T06:26:06.233Z,14.50
2017-10-17T06:28:33.792Z,14.50
2017-10-17T06:31:01.353Z,14.60
2017-10-17T06:33:28.974Z,14.60
2017-10-17T06:35:56.532Z,14.60
2017-10-17T06:38:24.088Z,14.60
2017-10-17T06:40:51.903Z,14.60
2017-10-17T06:43:19.460Z,14.60
2017-10-17T06:45:47.008Z,14.60
2017-10-17T06:48:14.720Z,14.60
2017-10-17T06:50:43.072Z,14.60
2017-10-17T06:53:10.684Z,14.60
2017-10-17T06:55:38.455Z,14.60
2017-10-17T06:58:06.024Z,14.70
2017-10-17T07:00:33.588Z,14.70
2017-10-17T07:03:01.192Z,14.70
2017-10-17T07:05:28.754Z,14.70
2017-10-17T07:07:56.304Z,14.70
2017-10-17T07:10:23.905Z,14.70
2017-10-17T07:12:52.240Z,14.70
2017-10-17T07:15:19.799Z,14.70
2017-10-17T07:17:48.163Z,14.70
2017-10-17T07:20:16.488Z,14.70
2017-10-17T07:22:44.044Z,14.70
2017-10-17T07:25:11.688Z,14.80
2017-10-17T07:27:39.248Z,14.80
2017-10-17T07:30:06.804Z,14.70
2017-10-17T07:32:35.365Z,14.80
2017-10-17T07:35:03.688Z,14.90
2017-10-17T07:37:31.240Z,14.90
2017-10-17T07:39:58.830Z,14.90
2017-10-17T07:42:26.387Z,14.90
2017-10-17T07:44:53.951Z,14.90
2017-10-17T07:47:21.667Z,14.90
2017-10-17T07:49:49.233Z,14.90
2017-10-17T07:52:16.794Z,15.00
2017-10-17T07:54:44.399Z,15.00
2017-10-17T07:57:11.959Z,15.00
2017-10-17T07:59:40.276Z,15.10
2017-10-17T08:02:07.895Z,15.00
2017-10-17T08:04:35.458Z,15.10
2017-10-17T08:07:03.019Z,15.10
2017-10-17T08:09:30.779Z,15.10
2017-10-17T08:11:59.112Z,15.20
2017-10-17T08:14:26.758Z,15.20
2017-10-17T08:16:54.356Z,15.30
2017-10-17T08:19:21.916Z,15.30
2017-10-17T08:21:49.470Z,15.40
2017-10-17T08:24:17.268Z,15.40
2017-10-17T08:26:44.821Z,15.40
2017-10-17T08:29:13.148Z,15.50
2017-10-17T08:31:40.911Z,15.50
2017-10-17T08:34:08.458Z,15.50
2017-10-17T08:36:36.016Z,15.60
2017-10-17T08:39:04.527Z,15.70
2017-10-17T08:41:32.542Z,15.60
2017-10-17T08:44:00.119Z,15.70
2017-10-17T08:46:27.823Z,15.70
2017-10-17T08:48:56.136Z,15.80
2017-10-17T08:51:23.691Z,15.80
2017-10-17T08:53:51.460Z,15.80
2017-10-17T08:56:19.011Z,15.90
2017-10-17T08:58:47.339Z,15.90
2017-10-17T09:01:14.967Z,15.90
2017-10-17T09:03:42.542Z,15.90
2017-10-17T09:06:10.124Z,16.00
2017-10-17T09:08:38.679Z,16.00
2017-10-17T09:11:06.250Z,16.10
2017-10-17T09:13:33.819Z,16.10
2017-10-17T09:16:01.604Z,16.10
2017-10-17T09:18:29.172Z,16.20
2017-10-17T09:20:57.501Z,16.40
2017-10-17T09:23:25.239Z,16.30
2017-10-17T09:25:52.792Z,16.40
2017-10-17T09:28:20.349Z,16.50
2017-10-17T09:30:47.964Z,16.60
2017-10-17T09:33:15.525Z,16.80
2017-10-17T09:35:43.102Z,16.90
2017-10-17T09:38:11.668Z,17.10
2017-10-17T09:40:39.988Z,17.20
2017-10-17T09:43:07.544Z,17.20
2017-10-17T09:45:35.152Z,17.30
2017-10-17T09:48:02.730Z,17.40
2017-10-17T09:50:30.388Z,17.40
2017-10-17T09:52:59.505Z,17.50
2017-10-17T09:55:27.060Z,17.50
2017-10-17T09:57:54.612Z,17.60
2017-10-17T10:00:22.203Z,17.60
2017-10-17T10:02:49.755Z,17.70
2017-10-17T10:05:17.344Z,17.70
2017-10-17T10:07:44.948Z,17.70
2017-10-17T10:10:12.512Z,17.70
2017-10-17T10:12:40.076Z,17.80
2017-10-17T10:15:07.672Z,17.80
2017-10-17T10:17:35.223Z,17.80
2017-10-17T10:20:02.818Z,17.80
2017-10-17T10:22:31.378Z,18.00
2017-10-17T10:24:59.708Z,18.00
2017-10-17T10:27:27.264Z,18.00
2017-10-17T10:29:55.032Z,18.20
2017-10-17T10:32:22.592Z,18.20
2017-10-17T10:34:50.912Z,18.30
2017-10-17T10:37:18.520Z,18.30
2017-10-17T10:39:46.077Z,18.20
2017-10-17T10:42:14.280Z,18.20
2017-10-17T10:44:41.880Z,18.20
2017-10-17T10:47:10.225Z,18.30
2017-10-17T10:49:37.790Z,18.20
2017-10-17T10:52:05.403Z,18.20
2017-10-17T10:54:32.960Z,18.20
2017-10-17T10:57:00.524Z,18.10
2017-10-17T10:59:28.124Z,18.20
2017-10-17T11:01:55.683Z,18.20
2017-10-17T11:04:24.017Z,18.20
2017-10-17T11:06:51.804Z,18.20
2017-10-17T11:09:20.127Z,18.20
2017-10-17T11:11:47.688Z,18.20
2017-10-17T11:14:15.295Z,18.20
2017-10-17T11:16:42.852Z,18.20
2017-10-17T11:19:10.410Z,18.20
2017-10-17T11:21:38.109Z,18.10
2017-10-17T11:24:05.659Z,18.00
2017-10-17T11:26:33.219Z,18.00
2017-10-17T11:29:00.919Z,18.10
2017-10-17T11:31:28.489Z,18.10
2017-10-17T11:33:56.064Z,18.10
2017-10-17T11:36:23.788Z,18.10
2017-10-17T11:38:51.343Z,18.10
2017-10-17T11:41:30.848Z,18.10
2017-10-17T11:43:58.404Z,18.20
2017-10-17T11:46:25.960Z,18.20
2017-10-17T11:48:53.578Z,18.20
2017-10-17T11:51:21.174Z,18.20
2017-10-17T11:53:48.737Z,18.20
2017-10-17T11:56:17.105Z,18.20
2017-10-17T11:58:44.696Z,18.20
2017-10-17T12:01:12.257Z,18.20
2017-10-17T12:03:40.637Z,18.10
2017-10-17T12:06:08.197Z,18.10
2017-10-17T12:08:35.762Z,18.20
2017-10-17T12:11:03.372Z,18.20
2017-10-17T12:13:30.928Z,18.10
2017-10-17T12:15:58.475Z,18.10
2017-10-17T12:18:26.297Z,18.10
2017-10-17T12:20:53.851Z,18.10
2017-10-17T12:23:21.399Z,18.10
2017-10-17T12:25:49.000Z,18.20
2017-10-17T12:28:16.559Z,18.20
2017-10-17T12:30:44.881Z,18.10
2017-10-17T12:33:12.484Z,18.10
2017-10-17T12:35:40.036Z,18.00
2017-10-17T12:38:07.587Z,18.00
2017-10-17T12:40:35.286Z,18.00
2017-10-17T12:43:03.619Z,17.90
2017-10-17T12:45:31.187Z,17.90
2017-10-17T12:47:59.564Z,17.80
2017-10-17T12:50:27.879Z,17.80
2017-10-17T12:52:55.429Z,17.70
2017-10-17T12:55:23.019Z,17.70
2017-10-17T12:57:50.578Z,17.70
2017-10-17T13:00:18.901Z,17.60
2017-10-17T13:02:46.676Z,17.60
2017-10-17T13:05:15.004Z,17.60
2017-10-17T13:07:42.876Z,17.60
2017-10-17T13:10:11.259Z,17.60
2017-10-17T13:12:39.577Z,17.60
2017-10-17T13:15:07.131Z,17.60
2017-10-17T13:17:34.714Z,17.50
2017-10-17T13:20:03.028Z,17.40
2017-10-17T13:22:30.588Z,17.40
2017-10-17T13:24:58.186Z,17.40
2017-10-17T13:27:25.740Z,17.30
2017-10-17T13:29:53.304Z,17.30
2017-10-17T13:32:20.916Z,17.30
2017-10-17T13:34:48.479Z,17.20
2017-10-17T13:37:16.042Z,17.30
2017-10-17T13:39:43.642Z,17.20
2017-10-17T13:42:11.448Z,17.20
2017-10-17T13:44:39.019Z,17.10
2017-10-17T13:47:07.395Z,17.10
2017-10-17T13:49:34.956Z,17.10
2017-10-17T13:52:02.508Z,17.10
2017-10-17T13:54:30.113Z,17.10
2017-10-17T13:56:58.432Z,17.00
2017-10-17T13:59:26.005Z,16.90
2017-10-17T14:01:54.363Z,16.90
2017-10-17T14:04:22.679Z,16.90
2017-10-17T14:06:50.232Z,16.90
2017-10-17T14:09:18.009Z,16.80
2017-10-17T14:11:46.331Z,16.70
2017-10-17T14:14:13.878Z,16.70
2017-10-17T14:16:41.647Z,16.70
2017-10-17T14:19:09.201Z,16.60
2017-10-17T14:21:37.533Z,16.50
2017-10-17T14:24:05.323Z,16.50
2017-10-17T14:26:32.878Z,16.50
2017-10-17T14:29:00.430Z,16.40
2017-10-17T14:31:28.234Z,16.40
2017-10-17T14:33:55.844Z,16.30
2017-10-17T14:36:23.401Z,16.20
2017-10-17T14:38:51.816Z,16.10
2017-10-17T14:41:19.371Z,16.10
2017-10-17T14:43:46.945Z,16.10
2017-10-17T14:46:14.550Z,16.00
2017-10-17T14:48:42.116Z,16.00
2017-10-17T14:51:09.668Z,16.00
2017-10-17T14:53:37.277Z,15.90
2017-10-17T14:56:04.848Z,15.90
2017-10-17T14:58:32.395Z,15.80
2017-10-17T15:01:00.016Z,15.80
2017-10-17T15:03:27.579Z,15.70
2017-10-17T15:05:55.131Z,15.70
2017-10-17T15:08:22.744Z,15.60
2017-10-17T15:10:50.317Z,15.50
2017-10-17T15:13:17.900Z,15.50
2017-10-17T15:15:45.503Z,15.50
2017-10-17T15:18:13.063Z,15.40
2017-10-17T15:20:40.616Z,15.40
2017-10-17T15:23:08.232Z,15.30
2017-10-17T15:25:35.815Z,15.30
2017-10-17T15:28:04.152Z,15.20
2017-10-17T15:30:31.760Z,15.20
2017-10-17T15:32:59.323Z,15.10
2017-10-17T15:35:26.887Z,15.00
2017-10-17T15:37:54.672Z,15.00
2017-10-17T15:40:22.996Z,14.90
2017-10-17T15:42:50.551Z,14.90
2017-10-17T15:45:18.256Z,14.80
2017-10-17T15:47:45.801Z,14.80
2017-10-17T15:50:13.367Z,14.80
2017-10-17T15:52:40.963Z,14.70
2017-10-17T15:55:09.288Z,14.60
2017-10-17T15:57:36.856Z,14.60
2017-10-17T16:00:04.524Z,14.60
2017-10-17T16:02:32.071Z,14.60
2017-10-17T16:05:00.397Z,14.50
2017-10-17T16:07:28.004Z,14.40
2017-10-17T16:09:55.568Z,14.40
2017-10-17T16:12:23.122Z,14.40
2017-10-17T16:14:50.711Z,14.40
2017-10-17T16:17:18.260Z,14.30
2017-10-17T16:19:46.570Z,14.20
2017-10-17T16:22:14.199Z,14.20
2017-10-17T16:24:41.747Z,14.20
2017-10-17T16:27:09.300Z,14.20
2017-10-17T16:29:37.043Z,14.10
2017-10-17T16:32:04.595Z,14.10
2017-10-17T16:34:32.157Z,14.10
2017-10-17T16:36:59.916Z,14.10
2017-10-17T16:39:27.480Z,14.00
2017-10-17T16:41:55.800Z,14.00
2017-10-17T16:44:23.398Z,13.90
2017-10-17T16:46:50.959Z,13.90
2017-10-17T16:49:18.509Z,13.90
2017-10-17T16:51:46.304Z,13.90
2017-10-17T16:54:14.624Z,13.80
2017-10-17T16:56:42.179Z,13.80
2017-10-17T16:59:10.591Z,13.80
2017-10-17T17:01:38.192Z,13.80
2017-10-17T17:04:06.508Z,13.80
2017-10-17T17:06:34.117Z,13.70
2017-10-17T17:09:01.672Z,13.70
2017-10-17T17:11:29.232Z,13.70
2017-10-17T17:13:56.857Z,13.70
2017-10-17T17:16:24.423Z,13.70
2017-10-17T17:18:51.975Z,13.70
2017-10-17T17:21:19.748Z,13.70
2017-10-17T17:23:48.816Z,13.60
2017-10-17T17:26:16.372Z,13.60
2017-10-17T17:28:44.748Z,13.50
2017-10-17T17:31:13.070Z,13.50
2017-10-17T17:33:40.628Z,13.50
2017-10-17T17:36:09.043Z,13.40
2017-10-17T17:38:36.596Z,13.40
2017-10-17T17:41:04.152Z,13.40
2017-10-17T17:43:31.760Z,13.40
2017-10-17T17:45:59.312Z,13.40
2017-10-17T17:48:26.864Z,13.30
2017-10-17T17:50:54.564Z,13.30
2017-10-17T17:53:22.331Z,13.30
2017-10-17T17:55:49.915Z,13.30
2017-10-17T17:58:17.519Z,13.30
2017-10-17T18:00:45.087Z,13.30
2017-10-17T18:03:12.667Z,13.30
2017-10-17T18:05:40.412Z,13.30
2017-10-17T18:08:07.972Z,13.30
2017-10-17T18:10:35.544Z,13.30
2017-10-17T18:13:03.151Z,13.20
2017-10-17T18:15:30.730Z,13.20
2017-10-17T18:17:58.288Z,13.20
2017-10-17T18:20:25.892Z,13.10
2017-10-17T18:22:54.223Z,13.10
2017-10-17T18:25:21.784Z,13.10
2017-10-17T18:27:49.380Z,13.10
2017-10-17T18:30:16.938Z,13.00
2017-10-17T18:32:44.500Z,13.00
2017-10-17T18:35:12.267Z,13.00
2017-10-17T18:37:39.826Z,13.10
2017-10-17T18:40:08.143Z,13.00
2017-10-17T18:42:35.912Z,13.00
2017-10-17T18:45:04.252Z,12.90
2017-10-17T18:47:31.812Z,12.90
2017-10-17T18:49:59.579Z,12.90
2017-10-17T18:52:27.916Z,12.90
2017-10-17T18:54:55.480Z,12.80
2017-10-17T18:57:23.864Z,12.80
2017-10-17T18:59:51.432Z,12.80
2017-10-17T19:02:18.996Z,12.80
2017-10-17T19:04:46.594Z,12.70
2017-10-17T19:07:14.157Z,12.70
2017-10-17T19:09:42.487Z,12.70
2017-10-17T19:12:10.964Z,12.70
2017-10-17T19:14:38.536Z,12.70
2017-10-17T19:17:06.105Z,12.70
2017-10-17T19:19:33.876Z,12.70
2017-10-17T19:22:02.204Z,12.70
2017-10-17T19:24:29.759Z,12.60
2017-10-17T19:26:57.357Z,12.70
2017-10-17T19:29:24.919Z,12.60
2017-10-17T19:31:52.472Z,12.70
2017-10-17T19:34:20.091Z,12.60
2017-10-17T19:36:47.658Z,12.60
2017-10-17T19:39:15.232Z,12.60
2017-10-17T19:41:42.999Z,12.60
2017-10-17T19:44:11.328Z,12.50
2017-10-17T19:46:38.899Z,12.50
2017-10-17T19:49:07.460Z,12.50
2017-10-17T19:51:35.779Z,12.40
2017-10-17T19:54:03.336Z,12.40
2017-10-17T19:56:30.939Z,12.50
2017-10-17T19:58:59.272Z,12.40
2017-10-17T20:01:26.831Z,12.40
2017-10-17T20:03:55.382Z,12.40
2017-10-17T20:06:22.939Z,12.30
2017-10-17T20:08:51.263Z,12.30
2017-10-17T20:11:19.047Z,12.30
2017-10-17T20:13:47.400Z,12.30
2017-10-17T20:16:14.967Z,12.30
2017-10-17T20:18:43.368Z,12.20
2017-10-17T20:21:10.933Z,12.20
2017-10-17T20:23:38.504Z,12.20
2017-10-17T20:26:06.884Z,12.20
2017-10-17T20:28:35.212Z,12.10
2017-10-17T20:31:02.780Z,12.10
2017-10-17T20:33:31.156Z,12.10
2017-10-17T20:35:59.487Z,12.10
2017-10-17T20:38:27.048Z,12.00
2017-10-17T20:40:55.559Z,12.00
2017-10-17T20:43:23.115Z,12.00
2017-10-17T20:45:50.718Z,12.00
2017-10-17T20:48:18.348Z,12.00
2017-10-17T20:50:46.675Z,11.90
2017-10-17T20:53:14.247Z,11.90
2017-10-17T20:55:42.616Z,11.90
2017-10-17T20:58:10.926Z,11.90
2017-10-17T21:00:38.487Z,11.80
2017-10-17T21:03:06.091Z,11.80
2017-10-17T21:05:33.655Z,11.80
2017-10-17T21:08:01.220Z,11.80
2017-10-17T21:10:28.833Z,11.80
2017-10-17T21:12:56.388Z,11.80
2017-10-17T21:15:23.967Z,11.80
2017-10-17T21:17:52.507Z,11.70
2017-10-17T21:20:20.068Z,11.70
2017-10-17T21:22:47.642Z,11.70
2017-10-17T21:25:16.011Z,11.60
2017-10-17T21:27:43.576Z,11.60
2017-10-17T21:30:11.135Z,11.60
2017-10-17T21:32:38.849Z,11.60
2017-10-17T21:35:06.404Z,11.60
2017-10-17T21:37:33.964Z,11.60
2017-10-17T21:40:01.757Z,11.60
2017-10-17T21:42:30.112Z,11.60
2017-10-17T21:44:57.659Z,11.50
2017-10-17T21:47:26.224Z,11.50
2017-10-17T21:49:54.551Z,11.50
2017-10-17T21:52:22.112Z,11.50
2017-10-17T21:54:49.727Z,11.50
2017-10-17T21:57:17.297Z,11.40
2017-10-17T21:59:44.869Z,11.40
2017-10-17T22:02:13.080Z,11.40
2017-10-17T22:04:41.412Z,11.40
2017-10-17T22:07:08.975Z,11.40
2017-10-17T22:09:36.588Z,11.40
2017-10-17T22:12:04.150Z,11.40
2017-10-17T22:14:31.721Z,11.40
2017-10-17T22:17:00.091Z,11.40
2017-10-17T22:19:27.720Z,11.40
2017-10-17T22:21:56.044Z,11.40
2017-10-17T22:24:23.827Z,11.40
2017-10-17T22:26:51.389Z,11.40
2017-10-17T22:29:19.731Z,11.40
2017-10-17T22:31:48.300Z,11.30
2017-10-17T22:34:16.626Z,11.30
2017-10-17T22:36:44.479Z,11.30
2017-10-17T22:39:12.254Z,11.30
2017-10-17T22:41:40.582Z,11.20
2017-10-17T22:44:08.151Z,11.20
2017-10-17T22:46:35.916Z,11.20
2017-10-17T22:49:04.253Z,11.30
2017-10-17T22:51:31.827Z,11.20
2017-10-17T22:54:00.203Z,11.20
2017-10-17T22:56:27.766Z,11.20
2017-10-17T22:58:55.322Z,11.20
2017-10-17T23:01:23.452Z,11.20
2017-10-17T23:03:51.026Z,11.20
2017-10-17T23:06:18.593Z,11.10
2017-10-17T23:08:46.964Z,11.10
2017-10-17T23:11:15.296Z,11.10
2017-10-17T23:13:42.865Z,11.10
2017-10-17T23:16:11.243Z,11.10
2017-10-17T23:18:50.753Z,11.10
2017-10-17T23:21:19.139Z,11.10
2017-10-17T23:23:46.708Z,11.10
2017-10-17T23:26:14.272Z,11.10
2017-10-17T23:28:42.046Z,11.10
2017-10-17T23:31:10.384Z,11.10
2017-10-17T23:33:37.943Z,11.10
2017-10-17T23:36:05.560Z,11.00
2017-10-17T23:38:33.127Z,11.00
2017-10-17T23:41:00.753Z,11.00
2017-10-17T23:43:28.527Z,11.00
2017-10-17T23:45:56.455Z,11.10
2017-10-17T23:48:24.016Z,11.00
2017-10-17T23:50:51.772Z,11.00
2017-10-17T23:53:19.330Z,11.00
2017-10-17T23:55:47.660Z,11.00
2017-10-17T23:58:15.274Z,11.00
